createdAt,value
2018-07-20T00:02:14.630Z,20.53
2018-07-20T00:04:43.253Z,21.97
2018-07-20T00:07:12.015Z,23.07
2018-07-20T00:09:40.647Z,23.00
2018-07-20T00:12:09.693Z,23.07
2018-07-20T00:14:38.296Z,25.00
2018-07-20T00:17:06.921Z,23.50
2018-07-20T00:19:35.534Z,23.53
2018-07-20T00:22:04.235Z,23.10
2018-07-20T00:24:32.709Z,23.03
2018-07-20T00:27:01.431Z,21.67
2018-07-20T00:29:30.020Z,22.80
2018-07-20T00:31:58.575Z,23.00
2018-07-20T00:34:27.120Z,22.73
2018-07-20T00:36:55.886Z,24.53
2018-07-20T00:39:24.521Z,24.50
2018-07-20T00:41:53.367Z,27.40
2018-07-20T00:44:22.186Z,26.80
2018-07-20T00:46:51.036Z,27.07
2018-07-20T00:49:19.588Z,33.07
2018-07-20T00:51:48.433Z,34.33
2018-07-20T00:54:16.951Z,39.07
2018-07-20T00:56:45.606Z,38.27
2018-07-20T00:59:14.122Z,35.10
2018-07-20T01:01:42.862Z,38.37
2018-07-20T01:04:11.375Z,33.37
2018-07-20T01:06:40.060Z,31.20
2018-07-20T01:09:09.973Z,28.43
2018-07-20T01:11:39.075Z,29.03
2018-07-20T01:14:07.599Z,28.67
2018-07-20T01:16:36.847Z,28.43
2018-07-20T01:19:05.551Z,27.97
2018-07-20T01:21:34.322Z,30.30
2018-07-20T01:24:02.516Z,31.43
2018-07-20T01:26:31.127Z,31.40
2018-07-20T01:28:59.834Z,29.87
2018-07-20T01:31:28.475Z,30.60
2018-07-20T01:33:57.383Z,30.53
2018-07-20T01:36:25.952Z,30.97
2018-07-20T01:38:54.364Z,29.97
2018-07-20T01:41:22.888Z,30.70
2018-07-20T01:43:51.733Z,30.50
2018-07-20T01:46:20.257Z,31.13
2018-07-20T01:48:48.894Z,30.00
2018-07-20T01:51:17.399Z,27.83
2018-07-20T01:53:46.028Z,29.00
2018-07-20T01:56:14.510Z,27.47
2018-07-20T01:58:43.264Z,26.50
2018-07-20T02:01:11.778Z,28.27
2018-07-20T02:03:40.540Z,25.33
2018-07-20T02:06:09.097Z,26.37
2018-07-20T02:08:37.875Z,29.67
2018-07-20T02:11:06.378Z,28.53
2018-07-20T02:13:35.187Z,30.13
2018-07-20T02:16:03.758Z,31.33
2018-07-20T02:18:32.473Z,31.23
2018-07-20T02:21:00.958Z,31.17
2018-07-20T02:23:29.529Z,33.20
2018-07-20T02:25:58.080Z,31.43
2018-07-20T02:28:26.823Z,33.87
2018-07-20T02:30:55.377Z,41.33
2018-07-20T02:33:23.940Z,40.60
2018-07-20T02:35:52.483Z,42.57
2018-07-20T02:38:21.164Z,44.43
2018-07-20T02:40:49.696Z,43.60
2018-07-20T02:43:18.448Z,44.50
2018-07-20T02:45:46.947Z,41.50
2018-07-20T02:48:15.739Z,38.57
2018-07-20T02:50:44.277Z,37.53
2018-07-20T02:53:13.000Z,35.83
2018-07-20T02:55:41.571Z,34.63
2018-07-20T02:58:10.100Z,34.43
2018-07-20T03:00:38.625Z,31.77
2018-07-20T03:03:07.355Z,33.63
2018-07-20T03:05:35.911Z,31.00
2018-07-20T03:08:04.630Z,26.83
2018-07-20T03:10:33.159Z,26.00
2018-07-20T03:13:01.696Z,23.80
2018-07-20T03:15:30.278Z,22.80
2018-07-20T03:17:59.081Z,19.27
2018-07-20T03:20:27.632Z,19.37
2018-07-20T03:22:56.456Z,18.10
2018-07-20T03:25:25.013Z,19.10
2018-07-20T03:27:53.838Z,17.73
2018-07-20T03:30:22.417Z,19.67
2018-07-20T03:32:51.377Z,18.80
2018-07-20T03:35:19.882Z,18.23
2018-07-20T03:37:48.646Z,21.03
2018-07-20T03:40:17.154Z,19.37
2018-07-20T03:42:45.953Z,19.80
2018-07-20T03:45:14.465Z,21.00
2018-07-20T03:47:43.151Z,24.17
2018-07-20T03:50:11.692Z,24.37
2018-07-20T03:52:40.220Z,24.60
2018-07-20T03:55:08.764Z,26.40
2018-07-20T03:57:37.493Z,28.23
2018-07-20T04:00:06.322Z,28.67
2018-07-20T04:02:35.382Z,29.07
2018-07-20T04:05:04.109Z,29.60
2018-07-20T04:07:32.742Z,23.47
2018-07-20T04:10:01.282Z,24.23
2018-07-20T04:12:30.039Z,23.53
2018-07-20T04:14:58.603Z,23.30
2018-07-20T04:17:31.483Z,20.37
2018-07-20T04:20:00.060Z,22.50
2018-07-20T04:22:28.906Z,20.70
2018-07-20T04:24:57.510Z,20.47
2018-07-20T04:27:26.378Z,19.87
2018-07-20T04:29:54.916Z,20.73
2018-07-20T04:32:23.531Z,19.47
2018-07-20T04:34:52.026Z,20.87
2018-07-20T04:37:20.571Z,24.53
2018-07-20T04:39:49.096Z,28.37
2018-07-20T04:42:17.778Z,26.50
2018-07-20T04:44:46.283Z,26.90
2018-07-20T04:47:14.982Z,24.07
2018-07-20T04:49:43.515Z,25.50
2018-07-20T04:52:12.254Z,29.37
2018-07-20T04:54:40.780Z,20.30
2018-07-20T04:57:09.305Z,19.83
2018-07-20T04:59:37.798Z,18.20
2018-07-20T05:02:06.927Z,25.87
2018-07-20T05:04:35.450Z,30.57
2018-07-20T05:07:04.280Z,31.27
2018-07-20T05:09:32.483Z,30.87
2018-07-20T05:12:01.002Z,30.67
2018-07-20T05:14:29.604Z,34.63
2018-07-20T05:16:58.219Z,35.77
2018-07-20T05:19:26.946Z,37.70
2018-07-20T05:21:55.824Z,41.27
2018-07-20T05:24:24.612Z,40.77
2018-07-20T05:26:53.151Z,42.10
2018-07-20T05:29:21.719Z,45.53
2018-07-20T05:31:50.244Z,40.50
2018-07-20T05:34:18.952Z,45.90
2018-07-20T05:36:47.503Z,54.67
2018-07-20T05:39:22.629Z,53.43
2018-07-20T05:41:51.180Z,57.60
2018-07-20T05:44:19.978Z,52.47
2018-07-20T05:46:48.510Z,55.33
2018-07-20T05:49:17.125Z,48.07
2018-07-20T05:51:45.695Z,47.53
2018-07-20T05:54:14.315Z,50.90
2018-07-20T05:56:42.867Z,52.07
2018-07-20T05:59:11.686Z,56.37
2018-07-20T06:01:40.362Z,51.30
2018-07-20T06:04:09.195Z,47.33
2018-07-20T06:06:37.838Z,44.80
2018-07-20T06:09:09.771Z,50.63
2018-07-20T06:11:38.359Z,49.13
2018-07-20T06:14:07.436Z,45.83
2018-07-20T06:16:36.130Z,50.27
2018-07-20T06:19:04.955Z,46.90
2018-07-20T06:21:33.532Z,44.60
2018-07-20T06:24:02.156Z,45.87
2018-07-20T06:26:30.802Z,41.73
2018-07-20T06:28:59.570Z,40.17
2018-07-20T06:31:28.225Z,41.80
2018-07-20T06:33:57.168Z,37.63
2018-07-20T06:36:26.031Z,36.77
2018-07-20T06:38:54.818Z,41.33
2018-07-20T06:41:23.576Z,36.53
2018-07-20T06:43:52.580Z,36.37
2018-07-20T06:46:21.197Z,35.27
2018-07-20T06:48:49.796Z,35.83
2018-07-20T06:51:18.357Z,34.73
2018-07-20T06:53:47.185Z,38.50
2018-07-20T06:56:15.765Z,36.90
2018-07-20T06:58:44.952Z,33.97
2018-07-20T07:01:13.616Z,30.60
2018-07-20T07:03:42.702Z,32.07
2018-07-20T07:06:11.627Z,29.83
2018-07-20T07:08:40.559Z,32.77
2018-07-20T07:11:09.219Z,29.63
2018-07-20T07:13:38.115Z,27.80
2018-07-20T07:16:06.836Z,28.77
2018-07-20T07:18:36.066Z,29.57
2018-07-20T07:21:04.838Z,31.33
2018-07-20T07:23:34.280Z,30.00
2018-07-20T07:26:02.574Z,30.03
2018-07-20T07:28:31.154Z,29.63
2018-07-20T07:30:59.963Z,31.57
2018-07-20T07:33:28.556Z,31.00
2018-07-20T07:35:57.376Z,23.43
2018-07-20T07:38:25.995Z,24.10
2018-07-20T07:40:54.714Z,25.27
2018-07-20T07:43:23.225Z,24.37
2018-07-20T07:45:52.012Z,23.67
2018-07-20T07:48:20.580Z,23.10
2018-07-20T07:50:49.268Z,19.87
2018-07-20T07:53:17.795Z,20.00
2018-07-20T07:55:46.487Z,20.37
2018-07-20T07:58:15.003Z,24.03
2018-07-20T08:00:43.633Z,25.03
2018-07-20T08:03:12.242Z,25.53
2018-07-20T08:05:41.020Z,25.50
2018-07-20T08:08:09.600Z,21.37
2018-07-20T08:10:38.211Z,21.40
2018-07-20T08:13:06.826Z,22.63
2018-07-20T08:15:35.659Z,21.67
2018-07-20T08:18:04.231Z,21.10
2018-07-20T08:20:33.075Z,22.60
2018-07-20T08:23:01.770Z,24.40
2018-07-20T08:25:30.636Z,22.53
2018-07-20T08:27:59.262Z,23.70
2018-07-20T08:30:28.362Z,23.50
2018-07-20T08:32:57.125Z,21.23
2018-07-20T08:35:26.026Z,22.67
2018-07-20T08:37:54.723Z,21.80
2018-07-20T08:40:23.492Z,20.90
2018-07-20T08:42:52.811Z,21.13
2018-07-20T08:45:21.588Z,21.90
2018-07-20T08:47:50.194Z,22.17
2018-07-20T08:50:19.070Z,23.17
2018-07-20T08:52:47.611Z,23.73
2018-07-20T08:55:16.470Z,24.80
2018-07-20T08:57:45.131Z,22.07
2018-07-20T09:00:13.918Z,18.33
2018-07-20T09:02:42.483Z,22.60
2018-07-20T09:05:11.181Z,16.07
2018-07-20T09:07:39.857Z,17.87
2018-07-20T09:10:08.691Z,17.53
2018-07-20T09:12:37.310Z,18.00
2018-07-20T09:15:06.102Z,17.80
2018-07-20T09:17:34.726Z,18.73
2018-07-20T09:20:03.389Z,16.50
2018-07-20T09:22:31.902Z,16.60
2018-07-20T09:25:00.628Z,18.10
2018-07-20T09:27:29.215Z,17.30
2018-07-20T09:29:57.810Z,17.67
2018-07-20T09:32:26.364Z,15.80
2018-07-20T09:34:55.064Z,15.83
2018-07-20T09:37:23.717Z,13.27
2018-07-20T09:39:52.760Z,14.47
2018-07-20T09:42:21.290Z,13.10
2018-07-20T09:44:50.035Z,14.13
2018-07-20T09:47:18.580Z,13.90
2018-07-20T09:49:47.732Z,13.37
2018-07-20T09:52:16.280Z,14.97
2018-07-20T09:54:45.031Z,14.23
2018-07-20T09:57:13.574Z,12.10
2018-07-20T09:59:42.520Z,11.00
2018-07-20T10:02:11.031Z,12.67
2018-07-20T10:04:39.739Z,11.17
2018-07-20T10:07:08.261Z,11.27
2018-07-20T10:09:37.039Z,12.93
2018-07-20T10:12:05.599Z,10.60
2018-07-20T10:14:34.261Z,10.43
2018-07-20T10:17:03.114Z,9.67
2018-07-20T10:19:32.061Z,9.60
2018-07-20T10:22:00.622Z,9.77
2018-07-20T10:24:29.380Z,8.70
2018-07-20T10:26:57.904Z,9.07
2018-07-20T10:29:27.579Z,8.77
2018-07-20T10:31:56.142Z,11.40
2018-07-20T10:34:24.583Z,8.43
2018-07-20T10:36:53.159Z,11.20
2018-07-20T10:39:22.862Z,11.33
2018-07-20T10:41:51.847Z,8.47
2018-07-20T10:44:20.627Z,8.43
2018-07-20T10:46:49.275Z,8.13
2018-07-20T10:49:17.932Z,8.33
2018-07-20T10:51:46.536Z,9.47
2018-07-20T10:54:15.278Z,7.67
2018-07-20T10:56:43.820Z,9.87
2018-07-20T10:59:12.709Z,8.43
2018-07-20T11:01:41.015Z,8.40
2018-07-20T11:04:09.758Z,8.20
2018-07-20T11:06:38.500Z,8.87
2018-07-20T11:09:08.588Z,8.50
2018-07-20T11:11:37.255Z,9.43
2018-07-20T11:14:06.056Z,8.20
2018-07-20T11:16:34.674Z,7.97
2018-07-20T11:19:03.513Z,7.87
2018-07-20T11:21:32.044Z,8.33
2018-07-20T11:24:00.815Z,9.13
2018-07-20T11:26:29.357Z,8.43
2018-07-20T11:28:57.878Z,8.70
2018-07-20T11:31:26.923Z,7.77
2018-07-20T11:33:56.006Z,8.67
2018-07-20T11:36:24.684Z,8.27
2018-07-20T11:38:53.779Z,9.10
2018-07-20T11:41:22.931Z,8.60
2018-07-20T11:43:52.097Z,7.30
2018-07-20T11:46:20.690Z,8.57
2018-07-20T11:48:49.418Z,9.90
2018-07-20T11:51:17.995Z,8.00
2018-07-20T11:53:47.054Z,7.93
2018-07-20T11:56:16.042Z,7.77
2018-07-20T11:58:45.129Z,8.40
2018-07-20T12:01:13.890Z,8.63
2018-07-20T12:03:42.501Z,7.07
2018-07-20T12:06:11.191Z,9.40
2018-07-20T12:08:39.989Z,6.90
2018-07-20T12:11:08.608Z,6.67
2018-07-20T12:13:37.803Z,7.10
2018-07-20T12:16:06.892Z,7.97
2018-07-20T12:18:35.792Z,6.40
2018-07-20T12:21:04.337Z,7.80
2018-07-20T12:23:32.999Z,9.20
2018-07-20T12:26:01.511Z,7.70
2018-07-20T12:28:30.067Z,6.70
2018-07-20T12:30:58.711Z,7.40
2018-07-20T12:33:27.469Z,7.30
2018-07-20T12:35:56.076Z,6.83
2018-07-20T12:38:24.835Z,7.30
2018-07-20T12:40:53.380Z,6.83
2018-07-20T12:43:21.994Z,7.23
2018-07-20T12:45:50.522Z,7.47
2018-07-20T12:48:19.317Z,7.53
2018-07-20T12:50:47.845Z,8.40
2018-07-20T12:53:16.723Z,6.93
2018-07-20T12:55:45.278Z,7.70
2018-07-20T12:58:13.963Z,8.70
2018-07-20T13:00:42.499Z,7.90
2018-07-20T13:03:11.155Z,6.53
2018-07-20T13:05:40.506Z,6.90
2018-07-20T13:08:09.241Z,6.20
2018-07-20T13:10:37.837Z,7.47
2018-07-20T13:13:06.630Z,7.23
2018-07-20T13:15:35.192Z,8.07
2018-07-20T13:18:04.065Z,7.70
2018-07-20T13:20:32.653Z,6.97
2018-07-20T13:23:01.444Z,6.70
2018-07-20T13:25:30.066Z,7.20
2018-07-20T13:27:58.699Z,8.90
2018-07-20T13:30:27.473Z,7.63
2018-07-20T13:32:56.031Z,8.20
2018-07-20T13:35:24.728Z,7.70
2018-07-20T13:37:53.733Z,8.10
2018-07-20T13:40:22.330Z,7.90
2018-07-20T13:42:51.211Z,9.87
2018-07-20T13:45:19.775Z,8.93
2018-07-20T13:47:48.607Z,8.00
2018-07-20T13:50:17.292Z,7.80
2018-07-20T13:52:45.952Z,8.17
2018-07-20T13:55:14.478Z,7.57
2018-07-20T13:57:43.300Z,7.67
2018-07-20T14:00:12.000Z,8.37
2018-07-20T14:02:40.829Z,8.50
2018-07-20T14:05:09.515Z,8.17
2018-07-20T14:07:38.428Z,8.10
2018-07-20T14:10:07.127Z,8.00
2018-07-20T14:12:35.894Z,7.80
2018-07-20T14:15:04.846Z,7.63
2018-07-20T14:17:33.637Z,7.43
2018-07-20T14:20:02.239Z,7.57
2018-07-20T14:22:30.955Z,7.93
2018-07-20T14:24:59.614Z,7.47
2018-07-20T14:27:28.457Z,8.03
2018-07-20T14:29:56.996Z,8.30
2018-07-20T14:32:25.847Z,8.03
2018-07-20T14:34:54.485Z,8.53
2018-07-20T14:37:23.079Z,8.50
2018-07-20T14:39:51.728Z,15.33
2018-07-20T14:42:20.484Z,7.67
2018-07-20T14:44:49.206Z,8.60
2018-07-20T14:47:18.107Z,12.80
2018-07-20T14:49:46.734Z,7.67
2018-07-20T14:52:15.357Z,7.40
2018-07-20T14:54:43.980Z,7.73
2018-07-20T14:57:12.540Z,8.17
2018-07-20T14:59:41.135Z,7.87
2018-07-20T15:02:09.756Z,7.33
2018-07-20T15:04:38.386Z,8.00
2018-07-20T15:07:07.200Z,7.17
2018-07-20T15:09:35.925Z,7.63
2018-07-20T15:12:05.535Z,10.03
2018-07-20T15:14:34.114Z,7.47
2018-07-20T15:17:02.832Z,7.53
2018-07-20T15:19:31.404Z,7.47
2018-07-20T15:22:00.231Z,6.70
2018-07-20T15:24:28.813Z,7.03
2018-07-20T15:26:57.481Z,8.60
2018-07-20T15:29:26.075Z,7.40
2018-07-20T15:31:54.717Z,7.17
2018-07-20T15:34:23.379Z,7.53
2018-07-20T15:36:52.181Z,7.53
2018-07-20T15:39:20.901Z,8.60
2018-07-20T15:41:49.817Z,7.93
2018-07-20T15:44:18.473Z,7.70
2018-07-20T15:46:47.343Z,7.43
2018-07-20T15:49:15.344Z,10.27
2018-07-20T15:54:12.221Z,6.93
2018-07-20T15:56:40.873Z,8.20
2018-07-20T15:59:09.446Z,7.73
2018-07-20T16:01:38.248Z,8.53
2018-07-20T16:04:06.884Z,10.60
2018-07-20T16:06:35.616Z,11.03
2018-07-20T16:09:06.060Z,7.23
2018-07-20T16:11:34.977Z,8.03
2018-07-20T16:14:03.543Z,8.25
2018-07-20T16:16:32.565Z,7.33
2018-07-20T16:19:01.124Z,8.23
2018-07-20T16:21:29.918Z,8.20
2018-07-20T16:23:58.602Z,9.03
2018-07-20T16:26:27.527Z,7.83
2018-07-20T16:28:56.152Z,7.23
2018-07-20T16:31:25.193Z,7.30
2018-07-20T16:33:53.942Z,7.67
2018-07-20T16:36:22.659Z,9.67
2018-07-20T16:38:51.224Z,7.23
2018-07-20T16:41:20.044Z,7.53
2018-07-20T16:43:48.550Z,7.60
2018-07-20T16:46:17.315Z,6.73
2018-07-20T16:48:45.938Z,7.83
2018-07-20T16:51:14.695Z,26.33
2018-07-20T16:53:43.376Z,8.40
2018-07-20T16:56:11.802Z,6.87
2018-07-20T16:58:40.308Z,8.57
2018-07-20T17:01:09.450Z,8.43
2018-07-20T17:03:38.275Z,8.97
2018-07-20T17:06:07.307Z,7.03
2018-07-20T17:08:36.080Z,8.13
2018-07-20T17:11:04.825Z,7.40
2018-07-20T17:13:33.504Z,14.93
2018-07-20T17:16:02.348Z,7.80
2018-07-20T17:18:30.899Z,9.13
2018-07-20T17:20:59.741Z,7.43
2018-07-20T17:23:28.325Z,7.53
2018-07-20T17:25:57.080Z,7.67
2018-07-20T17:28:25.618Z,8.23
2018-07-20T17:30:54.543Z,8.97
2018-07-20T17:33:23.114Z,7.53
2018-07-20T17:35:51.936Z,8.07
2018-07-20T17:38:20.595Z,8.47
2018-07-20T17:40:49.214Z,8.63
2018-07-20T17:43:17.943Z,8.77
2018-07-20T17:45:46.729Z,13.17
2018-07-20T17:48:15.408Z,8.23
2018-07-20T17:50:44.175Z,13.47
2018-07-20T17:53:12.941Z,8.97
2018-07-20T17:55:41.799Z,10.27
2018-07-20T17:58:10.447Z,9.27
2018-07-20T18:00:39.191Z,10.23
2018-07-20T18:03:07.868Z,9.03
2018-07-20T18:05:36.738Z,9.13
2018-07-20T18:08:05.394Z,9.63
2018-07-20T18:10:34.213Z,9.27
2018-07-20T18:13:03.120Z,9.47
2018-07-20T18:15:32.016Z,11.40
2018-07-20T18:18:00.785Z,10.30
2018-07-20T18:20:29.800Z,9.53
2018-07-20T18:22:58.514Z,12.57
2018-07-20T18:25:27.488Z,9.03
2018-07-20T18:27:56.193Z,9.70
2018-07-20T18:30:25.083Z,9.37
2018-07-20T18:32:53.749Z,10.23
2018-07-20T18:35:22.649Z,10.63
2018-07-20T18:37:51.475Z,10.17
2018-07-20T18:40:20.231Z,10.00
2018-07-20T18:42:49.028Z,9.60
2018-07-20T18:45:17.809Z,9.97
2018-07-20T18:47:46.549Z,9.90
2018-07-20T18:50:15.332Z,10.60
2018-07-20T18:52:43.949Z,11.70
2018-07-20T18:55:12.381Z,12.80
2018-07-20T18:57:41.125Z,15.90
2018-07-20T19:00:09.954Z,15.03
2018-07-20T19:02:38.559Z,21.20
2018-07-20T19:05:07.146Z,17.00
2018-07-20T19:07:35.787Z,14.37
2018-07-20T19:10:04.826Z,13.17
2018-07-20T19:12:33.439Z,14.93
2018-07-20T19:15:02.144Z,12.20
2018-07-20T19:17:30.753Z,11.67
2018-07-20T19:19:59.576Z,11.83
2018-07-20T19:22:28.383Z,12.70
2018-07-20T19:24:57.377Z,14.17
2018-07-20T19:27:25.941Z,12.57
2018-07-20T19:29:54.667Z,14.77
2018-07-20T19:32:23.300Z,9.90
2018-07-20T19:34:52.110Z,12.50
2018-07-20T19:37:20.821Z,11.17
2018-07-20T19:39:49.628Z,10.93
2018-07-20T19:42:18.246Z,10.47
2018-07-20T19:44:47.322Z,10.53
2018-07-20T19:47:16.018Z,15.37
2018-07-20T19:49:45.226Z,14.97
2018-07-20T19:52:13.784Z,17.87
2018-07-20T19:54:42.653Z,17.00
2018-07-20T19:57:11.222Z,15.83
2018-07-20T19:59:40.056Z,18.80
2018-07-20T20:02:08.718Z,15.27
2018-07-20T20:04:37.529Z,12.50
2018-07-20T20:07:06.410Z,18.80
2018-07-20T20:09:35.351Z,15.83
2018-07-20T20:12:04.258Z,15.73
2018-07-20T20:14:32.997Z,15.37
2018-07-20T20:17:01.567Z,21.93
2018-07-20T20:19:30.389Z,17.97
2018-07-20T20:21:59.040Z,17.60
2018-07-20T20:24:27.950Z,15.23
2018-07-20T20:26:56.572Z,17.40
2018-07-20T20:29:25.160Z,16.40
2018-07-20T20:31:53.801Z,14.37
2018-07-20T20:34:22.609Z,20.10
2018-07-20T20:36:51.171Z,13.50
2018-07-20T20:39:20.086Z,16.57
2018-07-20T20:41:48.657Z,16.23
2018-07-20T20:44:17.485Z,17.80
2018-07-20T20:46:46.078Z,15.37
2018-07-20T20:49:14.733Z,13.43
2018-07-20T20:51:43.299Z,14.43
2018-07-20T20:54:12.170Z,15.23
2018-07-20T20:56:40.804Z,18.73
2018-07-20T20:59:09.805Z,13.87
2018-07-20T21:01:38.463Z,14.93
2018-07-20T21:04:07.337Z,17.13
2018-07-20T21:06:35.951Z,20.40
2018-07-20T21:09:06.949Z,18.70
2018-07-20T21:11:35.542Z,16.60
2018-07-20T21:14:04.433Z,15.00
2018-07-20T21:16:33.016Z,16.23
2018-07-20T21:19:01.907Z,17.83
2018-07-20T21:21:30.471Z,18.33
2018-07-20T21:23:59.154Z,18.77
2018-07-20T21:26:27.794Z,15.67
2018-07-20T21:28:56.860Z,13.83
2018-07-20T21:31:25.391Z,14.40
2018-07-20T21:33:54.170Z,12.60
2018-07-20T21:36:23.016Z,20.13
2018-07-20T21:38:51.604Z,17.83
2018-07-20T21:41:20.313Z,16.73
2018-07-20T21:43:49.151Z,16.87
2018-07-20T21:46:17.989Z,18.07
2018-07-20T21:48:46.949Z,15.27
2018-07-20T21:51:15.463Z,17.50
2018-07-20T21:53:43.709Z,14.67
2018-07-20T21:56:12.369Z,13.43
2018-07-20T21:58:41.139Z,16.00
2018-07-20T22:01:09.687Z,17.83
2018-07-20T22:03:38.734Z,15.10
2018-07-20T22:06:07.476Z,21.03
2018-07-20T22:08:36.080Z,17.87
2018-07-20T22:11:04.302Z,14.50
2018-07-20T22:13:33.019Z,19.23
2018-07-20T22:16:01.579Z,13.27
2018-07-20T22:18:30.372Z,17.73
2018-07-20T22:20:59.076Z,14.47
2018-07-20T22:23:28.273Z,13.90
2018-07-20T22:25:56.921Z,14.87
2018-07-20T22:28:25.930Z,14.67
2018-07-20T22:30:55.537Z,16.37
2018-07-20T22:33:24.566Z,19.10
2018-07-20T22:35:53.315Z,15.40
2018-07-20T22:38:22.261Z,17.20
2018-07-20T22:40:50.861Z,17.33
2018-07-20T22:43:19.466Z,15.87
2018-07-20T22:45:48.124Z,12.13
2018-07-20T22:48:16.873Z,14.37
2018-07-20T22:50:45.431Z,15.77
2018-07-20T22:53:14.157Z,17.80
2018-07-20T22:55:42.804Z,15.17
2018-07-20T22:58:11.380Z,14.20
2018-07-20T23:00:39.950Z,13.70
2018-07-20T23:03:08.886Z,13.53
2018-07-20T23:05:37.478Z,13.57
2018-07-20T23:08:06.310Z,15.03
2018-07-20T23:10:34.847Z,13.30
2018-07-20T23:13:03.424Z,15.63
2018-07-20T23:15:32.044Z,14.70
2018-07-20T23:18:00.958Z,17.30
2018-07-20T23:20:29.525Z,18.00
2018-07-20T23:22:58.383Z,14.80
2018-07-20T23:25:27.010Z,15.87
2018-07-20T23:27:55.802Z,13.57
2018-07-20T23:30:24.504Z,16.77
2018-07-20T23:32:53.104Z,15.57
2018-07-20T23:35:21.629Z,14.27
2018-07-20T23:37:50.368Z,16.37
2018-07-20T23:40:19.086Z,14.07
2018-07-20T23:42:47.662Z,17.20
2018-07-20T23:45:16.292Z,15.00
2018-07-20T23:47:45.033Z,17.60
2018-07-20T23:50:13.566Z,13.47
2018-07-20T23:52:42.266Z,18.17
2018-07-20T23:55:10.839Z,15.60
2018-07-20T23:57:39.428Z,13.97
